Time;durP1;ratioP1;P1;durP2;ratioP2;P2;SDS_P1;SDS_P2;PMS_P1;PMS_P2;Temp;Humidity;BMP_temperature;BMP_pressure;BME280_temperature;BME280_humidity;BME280_pressure;Samples;Min_cycle;Max_cycle;Signal;HPM_P1;HPM_P2
2022/01/15 00:00:23;;;;;;;49.47;5.53;;;;;;;9.42;50.62;102671.44;4966038;28;98949;-77
2022/01/15 00:02:50;;;;;;;34.28;5.78;;;;;;;9.45;50.66;102671.44;4974642;28;99603;-77
2022/01/15 00:05:18;;;;;;;39.10;4.70;;;;;;;9.32;50.99;102656.47;4971002;28;96806;-76
2022/01/15 00:07:47;;;;;;;43.15;5.40;;;;;;;9.28;51.23;102656.50;4969314;28;96909;-77
2022/01/15 00:10:14;;;;;;;29.77;4.88;;;;;;;9.32;51.03;102655.63;4968329;28;99334;-76
2022/01/15 00:12:41;;;;;;;38.20;5.93;;;;;;;9.25;51.11;102669.69;4966129;28;99419;-77
2022/01/15 00:15:11;;;;;;;42.55;5.80;;;;;;;9.36;51.40;102668.81;4965268;28;96896;-77
2022/01/15 00:17:45;;;;;;;31.75;5.63;;;;;;;9.56;50.73;102659.13;4958490;28;96834;-77
2022/01/15 00:20:13;;;;;;;42.55;5.63;;;;;;;9.37;50.85;102659.16;4966864;28;99104;-78
2022/01/15 00:22:40;;;;;;;51.13;6.97;;;;;;;9.49;50.30;102662.66;4962896;28;98899;-77
2022/01/15 00:25:07;;;;;;;31.25;4.78;;;;;;;9.22;51.00;102659.13;4962543;28;97583;-77
2022/01/15 00:27:34;;;;;;;23.70;4.43;;;;;;;9.24;51.33;102668.81;4964993;28;98538;-77
2022/01/15 00:30:00;;;;;;;30.90;3.75;;;;;;;9.10;51.56;102658.25;4968812;28;99044;-78
2022/01/15 00:32:27;;;;;;;38.08;4.78;;;;;;;8.83;51.78;102655.56;4960854;28;99087;-78
2022/01/15 00:34:53;;;;;;;33.45;4.38;;;;;;;8.76;51.80;102659.06;4962772;28;97860;-78
2022/01/15 00:37:19;;;;;;;22.75;4.43;;;;;;;9.20;51.17;102661.75;4966460;28;96891;-77
2022/01/15 00:39:47;;;;;;;32.50;4.90;;;;;;;9.01;51.73;102663.50;4969513;28;99267;-78
2022/01/15 00:42:14;;;;;;;35.25;4.28;;;;;;;9.32;50.95;102666.19;4966422;28;98953;-78
2022/01/15 00:44:41;;;;;;;36.55;5.00;;;;;;;9.03;51.64;102658.25;4969364;28;96795;-79
2022/01/15 00:47:08;;;;;;;30.85;4.60;;;;;;;9.26;51.60;102663.50;4963260;28;96896;-76
2022/01/15 00:49:34;;;;;;;31.98;4.35;;;;;;;9.16;51.27;102660.00;4971275;28;98999;-78
2022/01/15 00:52:01;;;;;;;44.67;4.07;;;;;;;9.09;51.02;102656.50;4970801;28;98902;-78
2022/01/15 00:54:27;;;;;;;34.08;4.15;;;;;;;8.99;51.74;102659.97;4972181;28;96775;-78
2022/01/15 00:56:55;;;;;;;29.75;4.07;;;;;;;9.14;51.10;102649.44;4971435;28;96839;-80
2022/01/15 00:59:21;;;;;;;35.60;4.68;;;;;;;8.94;51.53;102653.81;4972883;28;98940;-78
2022/01/15 01:01:47;;;;;;;41.25;5.22;;;;;;;9.06;51.48;102659.09;4972995;28;99287;-77
2022/01/15 01:04:14;;;;;;;34.25;4.85;;;;;;;8.99;51.71;102659.13;4969833;28;96958;-78
2022/01/15 01:06:40;;;;;;;39.55;4.90;;;;;;;9.15;51.10;102664.41;4967655;28;97190;-78
2022/01/15 01:09:06;;;;;;;34.05;4.18;;;;;;;8.76;51.57;102665.22;4970862;28;99308;-78
2022/01/15 01:11:44;;;;;;;38.58;5.00;;;;;;;8.98;52.02;102657.38;4967321;28;99736;-78
2022/01/15 01:25:06;;;;;;;30.83;4.97;;;;;;;8.51;52.84;102652.88;4988188;22;97049;-73
2022/01/15 01:27:43;;;;;;;31.08;4.20;;;;;;;8.95;51.99;102655.59;4955309;28;97862;-73
2022/01/15 01:30:17;;;;;;;20.35;4.70;;;;;;;8.78;52.22;102652.94;4954080;28;99014;-72
2022/01/15 01:32:50;;;;;;;28.85;4.07;;;;;;;8.59;52.70;102651.13;4946630;28;99467;-73
2022/01/15 01:35:29;;;;;;;41.58;5.57;;;;;;;8.66;52.64;102652.88;4946708;28;96975;-72
2022/01/15 01:37:59;;;;;;;25.92;4.90;;;;;;;8.91;52.03;102645.94;4938020;28;98929;-72
2022/01/15 01:40:36;;;;;;;45.75;4.20;;;;;;;8.86;52.29;102663.47;4944572;28;99323;-72
2022/01/15 01:43:09;;;;;;;35.60;5.22;;;;;;;8.88;52.59;102648.53;4940143;28;98154;-72
2022/01/15 01:45:36;;;;;;;34.95;4.03;;;;;;;8.96;52.39;102648.56;4929737;28;96803;-72
2022/01/15 01:48:02;;;;;;;33.65;4.50;;;;;;;8.55;53.50;102649.34;4935897;28;96920;-72
2022/01/15 01:50:30;;;;;;;35.28;4.05;;;;;;;8.74;52.97;102637.09;4941521;28;99253;-72
2022/01/15 01:52:59;;;;;;;36.40;4.40;;;;;;;8.87;53.39;102645.91;4948090;28;99533;-73
2022/01/15 01:55:28;;;;;;;25.77;3.60;;;;;;;8.64;53.29;102644.13;4933842;28;96955;-74
2022/01/15 01:57:56;;;;;;;29.45;3.65;;;;;;;8.52;54.01;102637.94;4934991;28;96941;-74
2022/01/15 02:00:24;;;;;;;32.92;4.13;;;;;;;8.70;53.99;102635.34;4929866;28;99001;-73
2022/01/15 02:02:53;;;;;;;33.90;3.53;;;;;;;8.60;53.68;102639.69;4930000;28;98862;-73
2022/01/15 02:05:21;;;;;;;42.22;4.55;;;;;;;8.43;54.39;102633.50;4928179;28;96787;-74
2022/01/15 02:07:48;;;;;;;29.30;3.65;;;;;;;8.36;55.19;102629.97;4926229;28;97482;-73
2022/01/15 02:10:17;;;;;;;26.58;5.07;;;;;;;8.59;54.43;102642.34;4925952;28;100445;-74
2022/01/15 02:12:45;;;;;;;28.42;4.20;;;;;;;8.20;55.89;102637.78;4935047;28;99261;-74
2022/01/15 02:15:14;;;;;;;32.70;4.75;;;;;;;8.53;54.20;102637.94;4941086;28;98712;-74
2022/01/15 02:17:40;;;;;;;43.88;3.90;;;;;;;8.68;53.94;102637.06;4937752;28;97958;-73
2022/01/15 02:20:23;;;;;;;26.73;3.78;;;;;;;8.79;53.70;102632.72;4926244;28;99460;-73
2022/01/15 02:25:43;;;;;;;29.75;3.47;;;;;;;8.45;55.28;102623.88;4909148;28;97350;-73
2022/01/15 02:28:09;;;;;;;34.60;4.28;;;;;;;8.05;56.14;102635.97;4935294;28;97472;-73
2022/01/15 02:30:36;;;;;;;31.50;3.97;;;;;;;8.23;56.01;102641.31;4939879;28;99033;-74
2022/01/15 02:33:04;;;;;;;35.78;4.75;;;;;;;8.17;55.84;102636.00;4935366;28;99002;-73
2022/01/15 02:35:32;;;;;;;28.67;3.78;;;;;;;8.28;55.97;102636.91;4933305;28;97588;-73
2022/01/15 02:38:02;;;;;;;35.05;4.32;;;;;;;7.93;57.29;102635.91;4932865;28;96963;-74
2022/01/15 02:40:28;;;;;;;35.05;4.78;;;;;;;8.25;56.35;102634.28;4932922;28;99145;-74
2022/01/15 02:42:56;;;;;;;39.40;4.47;;;;;;;8.21;55.86;102635.13;4927400;28;99004;-73
2022/01/15 02:45:23;;;;;;;37.03;5.00;;;;;;;8.19;56.24;102633.38;4929182;28;96973;-73
2022/01/15 02:48:02;;;;;;;37.10;4.75;;;;;;;8.03;56.39;102635.06;4932049;28;96803;-73
2022/01/15 02:50:29;;;;;;;25.70;3.97;;;;;;;7.98;57.39;102642.06;4932847;28;98932;-74
2022/01/15 02:53:00;;;;;;;29.85;5.18;;;;;;;8.26;56.64;102633.44;4943174;28;99100;-74
2022/01/15 02:55:26;;;;;;;24.05;3.35;;;;;;;8.25;56.67;102629.03;4937911;28;99546;-74
2022/01/15 02:57:53;;;;;;;32.28;4.88;;;;;;;7.44;58.03;102624.19;4938112;28;98621;-75
2022/01/15 03:00:20;;;;;;;30.60;4.75;;;;;;;7.86;57.97;102628.84;4935479;28;98184;-73
2022/01/15 03:02:46;;;;;;;35.42;4.22;;;;;;;7.56;59.10;102630.41;4934377;28;99023;-73
2022/01/15 03:05:12;;;;;;;38.47;5.03;;;;;;;7.51;58.34;102639.13;4934007;28;97637;-74
2022/01/15 03:07:39;;;;;;;36.00;4.35;;;;;;;7.70;58.76;102632.25;4934214;28;97780;-74
2022/01/15 03:10:09;;;;;;;30.23;4.38;;;;;;;7.61;58.26;102628.66;4930869;28;98933;-73
2022/01/15 03:12:35;;;;;;;30.60;3.70;;;;;;;7.81;58.14;102623.53;4937828;28;101231;-74
2022/01/15 03:15:04;;;;;;;32.67;4.25;;;;;;;7.86;58.40;102628.84;4931390;28;96799;-74
2022/01/15 03:17:30;;;;;;;42.08;4.22;;;;;;;7.95;58.13;102624.50;4928982;28;97428;-73
2022/01/15 03:19:57;;;;;;;32.15;4.75;;;;;;;7.64;57.94;102624.31;4935112;28;99581;-74
2022/01/15 03:22:23;;;;;;;34.58;3.97;;;;;;;7.28;59.27;102623.19;4939148;28;99112;-75
2022/01/15 03:24:50;;;;;;;32.92;4.53;;;;;;;7.75;59.14;102626.13;4943129;28;98478;-74
2022/01/15 03:27:21;;;;;;;37.25;4.88;;;;;;;7.83;58.57;102624.44;4932145;28;96794;-75
2022/01/15 03:29:48;;;;;;;54.95;5.70;;;;;;;7.70;57.65;102626.97;4926903;28;99136;-73
2022/01/15 03:32:14;;;;;;;36.88;4.45;;;;;;;7.39;59.42;102632.03;4930781;28;99071;-74
2022/01/15 03:34:40;;;;;;;34.25;4.03;;;;;;;7.57;59.08;102624.28;4934443;28;97291;-73
2022/01/15 03:37:06;;;;;;;40.63;5.15;;;;;;;7.48;58.09;102616.31;4937068;28;97977;-73
2022/01/15 03:39:33;;;;;;;26.52;4.07;;;;;;;7.91;58.52;102614.81;4933036;28;98076;-73
2022/01/15 03:41:59;;;;;;;41.53;5.15;;;;;;;7.75;57.81;102601.56;4932252;28;98955;-72
2022/01/15 03:44:27;;;;;;;45.00;4.78;;;;;;;7.84;57.52;102599.00;4932513;28;99587;-72
2022/01/15 03:46:53;;;;;;;39.15;5.57;;;;;;;7.87;57.63;102599.91;4937628;28;96852;-72
2022/01/15 03:49:20;;;;;;;41.50;4.03;;;;;;;7.30;59.62;102596.88;4949876;28;99042;-72
2022/01/15 03:51:46;;;;;;;44.80;5.45;;;;;;;7.58;58.24;102597.09;4935983;28;99154;-72
2022/01/15 03:54:12;;;;;;;36.95;4.20;;;;;;;7.67;58.66;102592.78;4928475;28;97788;-73
2022/01/15 03:56:39;;;;;;;41.65;6.18;;;;;;;7.95;57.73;102595.53;4933287;28;97663;-72
2022/01/15 03:59:05;;;;;;;40.72;4.93;;;;;;;7.44;58.39;102601.38;4943219;28;99212;-73
2022/01/15 04:01:33;;;;;;;35.72;4.28;;;;;;;7.60;58.56;102583.97;4939238;28;99341;-73
2022/01/15 04:04:00;;;;;;;45.72;5.85;;;;;;;7.75;58.19;102584.03;4930702;28;98159;-72
2022/01/15 04:06:26;;;;;;;37.22;5.55;;;;;;;7.79;58.00;102577.03;4929574;28;97154;-73
2022/01/15 04:08:52;;;;;;;36.60;5.55;;;;;;;7.99;57.24;102562.22;4932014;28;99232;-72
2022/01/15 04:11:18;;;;;;;65.78;8.65;;;;;;;7.55;57.59;102570.75;4940400;28;98774;-72
2022/01/15 04:13:45;;;;;;;48.55;7.70;;;;;;;7.89;57.60;102571.81;4940684;28;96742;-72
2022/01/15 04:16:11;;;;;;;50.33;8.00;;;;;;;7.75;58.11;102573.50;4937220;28;97062;-72
2022/01/15 04:18:41;;;;;;;40.47;6.88;;;;;;;7.75;57.30;102565.59;4929206;28;98995;-72
2022/01/15 04:21:09;;;;;;;40.78;7.22;;;;;;;7.60;57.79;102569.06;4944407;28;99345;-72
2022/01/15 04:23:36;;;;;;;36.97;7.13;;;;;;;7.53;58.42;102569.00;4943142;28;96717;-72
2022/01/15 04:26:02;;;;;;;48.60;7.70;;;;;;;7.67;58.70;102566.47;4939931;28;96864;-72
2022/01/15 04:28:31;;;;;;;42.83;6.07;;;;;;;7.44;58.44;102566.31;4939799;28;98206;-73
2022/01/15 04:31:04;;;;;;;46.30;7.30;;;;;;;7.82;57.49;102563.88;4946436;28;98177;-74
2022/01/15 04:33:31;;;;;;;34.80;5.60;;;;;;;7.53;58.21;102559.38;4940584;28;96910;-72
2022/01/15 04:35:58;;;;;;;49.10;5.55;;;;;;;7.46;58.87;102570.72;4941386;28;97118;-72
2022/01/15 04:38:25;;;;;;;36.88;5.22;;;;;;;7.68;58.05;102550.66;4942249;28;99356;-73
2022/01/15 04:40:51;;;;;;;39.70;5.88;;;;;;;7.81;56.80;102554.25;4945123;28;98076;-73
2022/01/15 04:43:18;;;;;;;41.97;5.45;;;;;;;7.74;57.49;102555.97;4933645;28;96736;-74
2022/01/15 04:45:44;;;;;;;43.13;6.03;;;;;;;7.45;58.05;102558.44;4940413;28;98665;-74
2022/01/15 04:48:10;;;;;;;41.83;4.93;;;;;;;7.69;57.91;102556.78;4937103;28;99114;-73
2022/01/15 04:50:37;;;;;;;39.80;5.38;;;;;;;7.55;58.19;102560.22;4946110;28;99547;-73
2022/01/15 04:53:05;;;;;;;42.00;5.80;;;;;;;7.88;57.56;102563.91;4935473;28;96722;-73
2022/01/15 04:55:31;;;;;;;44.35;5.90;;;;;;;7.89;57.15;102570.94;4937088;28;98575;-72
2022/01/15 04:57:57;;;;;;;35.80;5.15;;;;;;;7.90;57.23;102567.44;4933661;28;97691;-72
2022/01/15 05:00:24;;;;;;;38.08;5.00;;;;;;;7.78;57.19;102559.47;4945682;28;98162;-73
2022/01/15 05:02:50;;;;;;;34.60;5.03;;;;;;;7.89;56.83;102568.31;4935817;28;97780;-73
2022/01/15 05:05:17;;;;;;;42.60;6.25;;;;;;;7.61;57.72;102569.94;4933894;28;96882;-73
2022/01/15 05:07:44;;;;;;;39.92;4.95;;;;;;;7.78;57.75;102575.28;4933788;28;99094;-73
2022/01/15 05:10:16;;;;;;;32.22;5.20;;;;;;;7.68;56.77;102570.84;4933906;28;99066;-73
2022/01/15 05:12:44;;;;;;;28.30;4.97;;;;;;;7.77;57.33;102578.78;4937171;28;97805;-72
2022/01/15 05:15:12;;;;;;;35.22;5.63;;;;;;;7.80;57.16;102584.06;4934403;28;97422;-74
2022/01/15 05:17:38;;;;;;;42.25;6.43;;;;;;;7.96;56.66;102589.41;4940656;28;99172;-73
2022/01/15 05:20:06;;;;;;;31.70;6.35;;;;;;;7.98;56.48;102584.16;4932735;28;99199;-73
2022/01/15 05:22:34;;;;;;;34.25;6.65;;;;;;;8.00;56.52;102585.94;4936650;28;96853;-73
2022/01/15 05:25:00;;;;;;;32.03;7.25;;;;;;;7.71;57.64;102595.41;4933693;28;96988;-73
2022/01/15 05:27:28;;;;;;;41.88;7.32;;;;;;;7.34;57.67;102599.56;4937765;28;99489;-72
2022/01/15 05:29:54;;;;;;;45.80;6.88;;;;;;;7.62;58.31;102608.50;4932994;28;99244;-73
2022/01/15 05:32:23;;;;;;;38.88;7.28;;;;;;;7.42;58.43;102611.00;4933940;28;98872;-73
2022/01/15 05:34:50;;;;;;;35.67;7.22;;;;;;;7.22;58.85;102601.25;4939710;28;98385;-73
2022/01/15 05:37:16;;;;;;;35.53;6.13;;;;;;;7.16;59.15;102607.31;4940128;28;99324;-73
2022/01/15 05:39:43;;;;;;;32.58;6.82;;;;;;;7.15;59.20;102605.56;4935244;28;98274;-73
2022/01/15 05:42:09;;;;;;;41.00;7.32;;;;;;;7.26;58.33;102603.88;4940723;28;96773;-73
2022/01/15 05:44:37;;;;;;;36.33;6.72;;;;;;;7.21;59.31;102600.34;4937712;28;98935;-73
2022/01/15 05:47:04;;;;;;;36.80;6.65;;;;;;;7.31;58.23;102601.28;4940930;28;99239;-72
2022/01/15 05:49:31;;;;;;;39.63;7.28;;;;;;;7.48;57.88;102613.69;4944640;28;99762;-72
2022/01/15 05:51:57;;;;;;;40.83;6.78;;;;;;;6.64;60.54;102609.47;4940119;28;96840;-72
2022/01/15 05:54:23;;;;;;;39.85;6.32;;;;;;;6.99;59.87;102599.28;4929281;28;98846;-72
2022/01/15 05:56:49;;;;;;;41.22;6.32;;;;;;;7.07;59.43;102604.63;4932972;28;99354;-72
2022/01/15 05:59:16;;;;;;;35.92;6.95;;;;;;;7.07;58.86;102605.50;4938408;28;99038;-73
2022/01/15 06:01:43;;;;;;;36.28;6.05;;;;;;;7.40;58.10;102606.63;4941087;28;96681;-72
2022/01/15 06:04:10;;;;;;;28.20;5.82;;;;;;;7.07;58.52;102608.13;4944367;28;96915;-72
2022/01/15 06:06:36;;;;;;;27.33;6.13;;;;;;;7.12;59.13;102609.03;4940877;28;99331;-73
2022/01/15 06:09:03;;;;;;;36.47;6.75;;;;;;;7.14;58.37;102603.81;4934616;28;99356;-73
2022/01/15 06:11:30;;;;;;;38.17;7.28;;;;;;;7.06;58.71;102605.47;4934225;28;98826;-73
2022/01/15 06:13:57;;;;;;;28.90;6.18;;;;;;;6.38;61.96;102610.91;4928619;28;97156;-72
2022/01/15 06:16:24;;;;;;;40.30;7.05;;;;;;;6.79;60.54;102606.09;4935027;28;99396;-73
2022/01/15 06:18:51;;;;;;;36.88;7.35;;;;;;;6.35;62.00;102601.28;4929887;28;98923;-72
2022/01/15 06:21:18;;;;;;;36.90;8.02;;;;;;;6.71;61.03;102608.66;4942362;28;96760;-73
2022/01/15 06:23:44;;;;;;;41.70;8.68;;;;;;;6.64;59.36;102593.69;4940690;28;97036;-73
2022/01/15 06:26:11;;;;;;;40.55;7.70;;;;;;;6.34;61.68;102586.41;4946616;28;99254;-73
2022/01/15 06:28:37;;;;;;;51.88;8.43;;;;;;;6.92;60.09;102583.44;4934181;28;99224;-73
2022/01/15 06:31:03;;;;;;;43.15;7.63;;;;;;;7.00;59.25;102587.91;4943924;28;97275;-72
2022/01/15 06:33:30;;;;;;;43.50;7.95;;;;;;;7.27;58.91;102584.63;4936882;28;99081;-72
2022/01/15 06:35:57;;;;;;;38.67;7.93;;;;;;;7.30;57.95;102583.75;4938308;28;99020;-72
2022/01/15 06:38:24;;;;;;;45.70;8.95;;;;;;;7.49;57.94;102589.13;4939104;28;99263;-72
2022/01/15 06:40:50;;;;;;;37.67;9.32;;;;;;;7.53;57.32;102595.31;4946030;28;96780;-71
2022/01/15 06:43:16;;;;;;;46.63;9.15;;;;;;;7.42;57.57;102596.97;4953654;28;97367;-72
2022/01/15 06:45:43;;;;;;;42.63;10.10;;;;;;;7.54;58.17;102599.72;4939591;28;99492;-72
2022/01/15 06:48:09;;;;;;;37.83;9.48;;;;;;;7.49;57.25;102598.78;4935415;28;99788;-73
2022/01/15 06:50:37;;;;;;;51.13;10.05;;;;;;;7.47;57.46;102608.44;4947613;28;97503;-72
2022/01/15 06:53:05;;;;;;;44.05;9.52;;;;;;;7.44;57.29;102604.00;4941329;28;97177;-72
2022/01/15 06:55:31;;;;;;;46.88;9.65;;;;;;;7.49;57.20;102617.19;4935897;28;99677;-72
2022/01/15 06:57:57;;;;;;;40.53;9.15;;;;;;;7.42;57.41;102620.66;4948793;28;99180;-73
2022/01/15 07:00:25;;;;;;;39.10;9.38;;;;;;;7.61;57.12;102623.41;4943680;28;96850;-73
2022/01/15 07:02:51;;;;;;;40.53;10.25;;;;;;;7.69;56.70;102620.84;4944853;28;96989;-73
2022/01/15 07:05:20;;;;;;;36.20;9.82;;;;;;;7.64;56.58;102619.03;4947768;28;97573;-72
2022/01/15 07:07:46;;;;;;;45.13;10.00;;;;;;;7.40;56.67;102618.03;4944296;28;98820;-73
2022/01/15 07:10:15;;;;;;;48.38;8.93;;;;;;;6.98;57.73;102610.66;4936924;28;98473;-74
2022/01/15 07:12:41;;;;;;;48.47;8.63;;;;;;;6.74;58.46;102607.81;4938308;28;97580;-73
2022/01/15 07:15:11;;;;;;;43.28;9.10;;;;;;;6.78;59.34;102617.47;4939491;28;99118;-73
2022/01/15 07:17:41;;;;;;;39.85;8.23;;;;;;;7.02;58.33;102622.94;4933567;28;99956;-75
2022/01/15 07:20:09;;;;;;;45.45;8.65;;;;;;;6.71;59.27;102621.78;4931592;28;96961;-73
2022/01/15 07:22:35;;;;;;;45.83;8.82;;;;;;;6.63;58.99;102623.44;4937948;28;97345;-73
2022/01/15 07:25:01;;;;;;;48.38;10.60;;;;;;;6.56;59.98;102629.53;4958031;22;100377;-74
2022/01/15 07:27:29;;;;;;;50.85;9.75;;;;;;;6.95;59.09;102643.94;4949765;28;99001;-74
2022/01/15 07:29:55;;;;;;;36.70;8.75;;;;;;;7.29;58.02;102639.81;4948851;28;96773;-75
2022/01/15 07:32:22;;;;;;;47.92;8.82;;;;;;;7.31;57.17;102641.63;4953919;28;96911;-74
2022/01/15 07:34:48;;;;;;;46.13;9.43;;;;;;;7.27;57.12;102642.47;4949964;28;99007;-76
2022/01/15 07:37:15;;;;;;;33.65;7.72;;;;;;;6.97;57.23;102643.06;4925395;28;99144;-74
2022/01/15 07:39:43;;;;;;;39.00;9.43;;;;;;;6.63;59.21;102644.47;4931868;28;96694;-76
2022/01/15 07:42:10;;;;;;;50.42;9.70;;;;;;;6.86;58.91;102641.22;4928086;28;96801;-74
2022/01/15 07:44:37;;;;;;;38.95;8.90;;;;;;;7.02;58.58;102653.66;4931684;28;99328;-74
2022/01/15 07:47:04;;;;;;;42.15;8.18;;;;;;;7.24;57.40;102647.69;4941784;28;99041;-75
2022/01/15 07:49:32;;;;;;;38.70;8.65;;;;;;;7.50;56.63;102655.78;4941756;28;96780;-75
2022/01/15 07:51:58;;;;;;;50.72;9.05;;;;;;;7.57;56.64;102661.09;4934839;28;97414;-75
2022/01/15 07:54:25;;;;;;;39.17;7.32;;;;;;;7.78;55.14;102663.00;4948721;28;99099;-74
2022/01/15 07:56:54;;;;;;;34.97;6.00;;;;;;;7.65;55.54;102655.03;4950067;28;97952;-75
2022/01/15 07:59:21;;;;;;;45.70;6.30;;;;;;;7.31;55.80;102660.03;4956647;28;97269;-74
2022/01/15 08:01:48;;;;;;;45.47;6.63;;;;;;;7.05;56.87;102666.81;4937614;28;96766;-76
2022/01/15 08:04:15;;;;;;;42.40;8.02;;;;;;;7.07;56.62;102660.69;4931262;28;99253;-75
2022/01/15 08:06:42;;;;;;;45.90;6.95;;;;;;;6.72;57.24;102662.09;4937916;28;99521;-74
2022/01/15 08:09:08;;;;;;;35.05;6.85;;;;;;;6.40;59.86;102651.22;4928493;28;98027;-75
2022/01/15 08:11:35;;;;;;;36.85;6.95;;;;;;;6.98;57.70;102659.72;4931927;28;96777;-77
2022/01/15 08:14:01;;;;;;;36.95;6.85;;;;;;;7.06;57.96;102651.03;4939043;28;99314;-75
2022/01/15 08:16:28;;;;;;;35.03;6.88;;;;;;;6.46;58.41;102655.66;4947247;28;99591;-76
2022/01/15 08:18:56;;;;;;;32.72;6.85;;;;;;;6.74;58.10;102661.25;4938768;28;96729;-76
2022/01/15 08:21:22;;;;;;;31.15;7.53;;;;;;;7.20;57.17;102661.69;4935499;28;96859;-76
2022/01/15 08:23:49;;;;;;;28.75;6.45;;;;;;;7.08;56.24;102664.22;4935877;28;99154;-76
2022/01/15 08:26:16;;;;;;;30.90;6.03;;;;;;;6.97;56.02;102668.47;4931908;28;98956;-76
2022/01/15 08:28:42;;;;;;;42.17;6.80;;;;;;;6.98;56.51;102673.75;4926858;28;97085;-73
2022/01/15 08:31:08;;;;;;;28.73;7.78;;;;;;;6.72;57.64;102670.84;4932767;28;97163;-74
2022/01/15 08:33:35;;;;;;;30.58;5.82;;;;;;;6.93;57.83;102666.69;4929162;28;98966;-74
2022/01/15 08:36:04;;;;;;;31.35;5.55;;;;;;;7.10;57.12;102675.59;4929199;28;99054;-76
2022/01/15 08:38:30;;;;;;;28.85;6.80;;;;;;;7.48;55.89;102668.06;4927183;28;96876;-75
2022/01/15 08:40:56;;;;;;;31.80;6.82;;;;;;;7.43;55.15;102670.63;4927157;28;96889;-75
2022/01/15 08:43:23;;;;;;;33.75;6.72;;;;;;;7.35;56.60;102672.31;4930769;28;99414;-77
2022/01/15 08:45:50;;;;;;;31.85;7.55;;;;;;;7.10;57.16;102678.22;4930143;28;99203;-76
2022/01/15 08:48:19;;;;;;;32.40;6.80;;;;;;;7.51;55.84;102674.22;4928093;28;97346;-77
2022/01/15 08:50:46;;;;;;;31.05;6.22;;;;;;;7.58;54.08;102673.41;4930131;28;97360;-78
2022/01/15 08:53:16;;;;;;;24.05;6.63;;;;;;;7.36;55.68;102671.44;4929997;28;99470;-75
2022/01/15 08:55:43;;;;;;;34.53;7.65;;;;;;;6.97;56.87;102673.72;4929008;28;98579;-75
2022/01/15 08:58:09;;;;;;;24.30;5.53;;;;;;;7.32;56.66;102685.47;4934554;28;96841;-74
2022/01/15 09:00:36;;;;;;;30.35;6.78;;;;;;;7.73;55.16;102679.63;4928582;28;98817;-76
2022/01/15 09:03:02;;;;;;;29.65;7.53;;;;;;;7.66;54.59;102683.09;4927600;28;99563;-75
2022/01/15 09:05:30;;;;;;;38.72;7.75;;;;;;;7.34;56.72;102683.72;4925563;28;99235;-74
2022/01/15 09:07:56;;;;;;;31.90;8.45;;;;;;;7.40;56.35;102678.53;4929593;28;98769;-75
2022/01/15 09:10:24;;;;;;;39.75;8.20;;;;;;;7.41;56.85;102676.78;4928259;28;99271;-73
2022/01/15 09:12:50;;;;;;;32.92;6.95;;;;;;;7.69;55.48;102681.34;4929612;28;99007;-74
2022/01/15 09:15:17;;;;;;;37.92;7.70;;;;;;;7.66;55.39;102678.72;4926539;28;98009;-74
2022/01/15 09:17:44;;;;;;;44.72;8.07;;;;;;;7.61;54.87;102680.44;4933597;28;97139;-76
2022/01/15 09:20:12;;;;;;;33.63;7.45;;;;;;;7.95;54.83;102697.31;4930375;28;99251;-77
2022/01/15 09:22:38;;;;;;;37.47;7.45;;;;;;;7.80;54.72;102684.06;4929211;28;99527;-77
2022/01/15 09:25:05;;;;;;;33.72;8.48;;;;;;;7.77;54.91;102687.56;4929552;28;99487;-76
2022/01/15 09:30:17;;;;;;;41.42;8.98;;;;;;;8.08;54.41;102704.41;4930517;28;98642;-76
2022/01/15 09:32:46;;;;;;;34.45;8.30;;;;;;;8.29;54.06;102696.63;4930231;28;101793;-76
2022/01/15 09:35:14;;;;;;;39.13;8.10;;;;;;;8.57;52.58;102700.31;4932144;28;99022;-77
2022/01/15 09:37:43;;;;;;;39.22;8.75;;;;;;;8.70;52.15;102702.09;4931928;28;98832;-76
2022/01/15 09:40:12;;;;;;;32.17;9.57;;;;;;;8.29;51.54;102701.91;4933371;28;97484;-75
2022/01/15 09:42:44;;;;;;;26.33;7.20;;;;;;;7.91;52.63;102690.28;4929183;28;99428;-75
2022/01/15 09:45:11;;;;;;;32.78;6.90;;;;;;;7.76;54.55;102687.53;4929558;28;99185;-75
2022/01/15 09:47:38;;;;;;;36.30;7.57;;;;;;;7.87;54.42;102691.16;4929818;28;98156;-76
2022/01/15 09:50:08;;;;;;;40.63;7.80;;;;;;;7.93;54.13;102692.06;4932305;28;98289;-76
2022/01/15 09:52:36;;;;;;;37.28;7.78;;;;;;;8.17;53.42;102687.78;4927664;28;101867;-76
2022/01/15 09:55:06;;;;;;;35.63;6.95;;;;;;;8.29;52.93;102688.72;4925141;28;99163;-75
2022/01/15 09:57:33;;;;;;;37.90;9.45;;;;;;;8.59;53.00;102687.16;4931486;28;96939;-74
2022/01/15 10:00:02;;;;;;;43.08;8.40;;;;;;;8.17;53.33;102686.03;4932757;28;97035;-74
2022/01/15 10:02:28;;;;;;;43.60;9.55;;;;;;;8.31;53.20;102683.50;4927594;28;101236;-76
2022/01/15 10:04:54;;;;;;;39.53;8.32;;;;;;;8.31;52.66;102687.03;4926640;28;99144;-78
2022/01/15 10:07:25;;;;;;;38.17;9.25;;;;;;;8.32;53.49;102688.78;4936540;28;96802;-78
2022/01/15 10:09:52;;;;;;;31.67;7.90;;;;;;;8.04;53.37;102691.22;4942082;28;96743;-77
2022/01/15 10:12:25;;;;;;;33.50;8.73;;;;;;;8.23;53.30;102691.34;4935438;28;98345;-76
2022/01/15 10:14:51;;;;;;;40.67;8.82;;;;;;;7.92;54.02;102692.03;4929101;28;98971;-76
2022/01/15 10:17:24;;;;;;;36.13;9.07;;;;;;;8.09;54.98;102698.28;4931958;28;97170;-76
2022/01/15 10:19:52;;;;;;;29.88;8.10;;;;;;;8.11;54.10;102691.28;4931022;28;99258;-74
2022/01/15 10:22:21;;;;;;;40.88;8.68;;;;;;;8.46;53.51;102688.84;4938804;28;99302;-77
2022/01/15 10:24:53;;;;;;;37.78;8.95;;;;;;;8.39;53.25;102682.69;4925210;28;98847;-75
2022/01/15 10:27:29;;;;;;;45.92;8.80;;;;;;;8.36;53.29;102687.03;4932448;28;97871;-75
2022/01/15 10:29:58;;;;;;;41.10;9.90;;;;;;;8.44;52.52;102676.53;4935848;28;96892;-75
2022/01/15 10:32:27;;;;;;;38.22;9.07;;;;;;;8.60;52.57;102678.38;4927897;28;99277;-76
2022/01/15 10:34:54;;;;;;;37.40;8.90;;;;;;;8.36;52.91;102674.75;4940293;28;97653;-75
2022/01/15 10:37:21;;;;;;;43.17;11.02;;;;;;;8.38;52.28;102669.50;4927427;28;98967;-74
2022/01/15 10:39:57;;;;;;;46.45;9.93;;;;;;;8.53;53.05;102664.28;4925961;28;96984;-73
2022/01/15 10:42:24;;;;;;;52.40;11.50;;;;;;;8.79;51.95;102667.84;4925834;28;99136;-74
2022/01/15 10:44:51;;;;;;;41.97;11.30;;;;;;;8.61;52.08;102675.72;4934733;28;99117;-74
2022/01/15 10:47:22;;;;;;;46.53;10.35;;;;;;;8.53;52.07;102672.19;4937693;28;98849;-73
2022/01/15 10:49:51;;;;;;;46.67;11.38;;;;;;;8.76;51.95;102670.50;4934515;28;97996;-72
2022/01/15 10:52:19;;;;;;;50.53;12.13;;;;;;;8.93;51.68;102667.00;4929184;28;99418;-75
2022/01/15 10:54:55;;;;;;;45.00;11.65;;;;;;;8.98;51.10;102662.63;4940262;28;99121;-73
2022/01/15 10:57:24;;;;;;;40.45;12.23;;;;;;;9.20;50.57;102654.72;4934759;28;96819;-73
2022/01/15 10:59:59;;;;;;;46.35;11.90;;;;;;;8.93;51.36;102643.28;4931298;28;97556;-75
2022/01/15 11:02:25;;;;;;;49.45;12.95;;;;;;;9.00;50.75;102634.50;4924557;28;98954;-75
2022/01/15 11:04:53;;;;;;;49.97;13.43;;;;;;;9.30;50.21;102628.38;4939758;28;99552;-75
2022/01/15 11:07:19;;;;;;;46.70;12.07;;;;;;;8.82;50.92;102624.81;4944141;28;97083;-73
2022/01/15 11:09:48;;;;;;;48.35;13.57;;;;;;;9.09;50.91;102632.75;4943435;28;96805;-74
2022/01/15 11:12:14;;;;;;;37.03;12.15;;;;;;;9.02;50.65;102630.09;4943468;28;99231;-73
2022/01/15 11:14:41;;;;;;;36.20;11.82;;;;;;;9.21;49.83;102629.22;4945675;28;98939;-73
2022/01/15 11:17:09;;;;;;;43.10;12.50;;;;;;;9.10;50.41;102628.38;4941710;28;96790;-74
2022/01/15 11:19:36;;;;;;;38.00;12.10;;;;;;;9.28;49.71;102623.06;4945981;28;96810;-75
2022/01/15 11:22:05;;;;;;;42.75;13.43;;;;;;;8.65;51.36;102621.28;4944044;28;99136;-74
2022/01/15 11:24:31;;;;;;;48.22;14.20;;;;;;;8.79;51.45;102622.19;4934441;28;99179;-74
2022/01/15 11:27:00;;;;;;;52.08;14.52;;;;;;;9.00;50.37;102608.13;4943180;28;96874;-74
2022/01/15 11:29:27;;;;;;;44.33;12.77;;;;;;;8.90;50.12;102615.16;4945302;28;96793;-75
2022/01/15 11:31:56;;;;;;;35.05;10.18;;;;;;;8.95;50.65;102612.53;4933446;28;99559;-76
2022/01/15 11:34:24;;;;;;;44.60;11.52;;;;;;;8.98;50.54;102615.19;4935991;28;98914;-75
2022/01/15 11:36:51;;;;;;;39.80;12.90;;;;;;;9.01;50.74;102615.16;4926956;28;96972;-73
2022/01/15 11:39:22;;;;;;;40.42;12.63;;;;;;;9.23;50.41;102608.13;4942068;28;96742;-74
2022/01/15 11:41:52;;;;;;;42.00;12.02;;;;;;;9.08;48.65;102609.00;4938426;28;99054;-74